»·PEaware :: ASA250 KSEA-KPDX

ASA250 :: KSEA-KPDX

FLIGHT INFORMATION

Flight Status: Arrived
Operator:
Alaska Airlines
More flights by this operator :: More flights under this callsign
Pilot: Andrew J. (13363)
Aircraft: BOEING 737-800
(B738)
More flights by this aircraft type
Origin: KSEA Seattle-Tacoma Intl
United States
Destination: KPDX Portland Intl
United States
More flights between these airports :: More routes between these airports
Route: +SEA7 BUWZO KRATR2
File this flight plan on PilotEdge
Remarks:
Altitude:
(Current/Filed)
25,000ft
Speed:
(Current/Filed)
460kts
Departed: 11-Oct-18 04:20 PM
Arrived: 11-Oct-18 04:45 PM
Distance/Time
Traveled:
112nm/0:25
Distance/Time
To Go:
Arrived

Flight Plot

Page will automatically refresh every two minutes.

Flight plan parsing failed; only flown route is shown


Map Options




Map Legend


Flown Route
Filed Route
Departure Airport
Arrival Airport
Navaid (VOR, NDB)
Fix

Horizontal Profiles

Position Reports

Time Latitude Longitude Heading Altitude Ground
Speed
11-Oct-18 15:53 47.446352 -122.303042 245 334ft 0kts
11-Oct-18 15:54 47.446352 -122.303042 245 334ft 0kts
11-Oct-18 15:55 47.446352 -122.303042 245 334ft 0kts
11-Oct-18 15:56 47.446352 -122.303042 245 334ft 0kts
11-Oct-18 15:57 47.446352 -122.303042 245 334ft 0kts
11-Oct-18 15:58 47.446352 -122.303042 245 334ft 0kts
11-Oct-18 15:59 47.446352 -122.303042 245 334ft 0kts
11-Oct-18 16:00 47.446352 -122.303042 245 334ft 0kts
11-Oct-18 16:01 47.446352 -122.303042 245 334ft 0kts
11-Oct-18 16:02 47.446352 -122.303042 245 334ft 0kts
11-Oct-18 16:03 47.446352 -122.303042 245 334ft 0kts
11-Oct-18 16:04 47.446352 -122.303042 245 334ft 0kts
11-Oct-18 16:05 47.446352 -122.303042 245 334ft 0kts
11-Oct-18 16:06 47.446352 -122.303042 245 334ft 0kts
11-Oct-18 16:07 47.446352 -122.303042 245 334ft 0kts
11-Oct-18 16:08 47.446468 -122.302671 243 334ft 2kts
11-Oct-18 16:09 47.446213 -122.302039 1 334ft 2kts
11-Oct-18 16:10 47.446084 -122.302079 15 334ft 0kts
11-Oct-18 16:11 47.446084 -122.302079 15 334ft 0kts
11-Oct-18 16:12 47.446281 -122.302002 12 334ft 2kts
11-Oct-18 16:13 47.446969 -122.303105 310 334ft 5kts
11-Oct-18 16:14 47.447813 -122.306047 273 334ft 10kts
11-Oct-18 16:15 47.449278 -122.306289 0 334ft 8kts
11-Oct-18 16:16 47.452306 -122.306256 357 334ft 18kts
11-Oct-18 16:17 47.458228 -122.306188 359 334ft 23kts
11-Oct-18 16:18 47.463712 -122.306966 262 334ft 11kts
11-Oct-18 16:19 47.463652 -122.309472 268 334ft 0kts
11-Oct-18 16:20 47.463648 -122.309745 268 334ft 2kts
11-Oct-18 16:21 47.463616 -122.310967 218 334ft 0kts
11-Oct-18 16:22 47.456838 -122.311068 180 334ft 120kts
11-Oct-18 16:23 47.405116 -122.312813 182 3218ft 169kts
11-Oct-18 16:24 47.358884 -122.310810 178 4479ft 246kts
11-Oct-18 16:25 47.289761 -122.306989 180 7543ft 288kts
11-Oct-18 16:26 47.206835 -122.309453 180 10668ft 328kts
11-Oct-18 16:27 47.112283 -122.309524 181 13972ft 352kts
11-Oct-18 16:28 47.012041 -122.309592 181 17073ft 371kts
11-Oct-18 16:29 46.906670 -122.309636 180 19741ft 390kts
11-Oct-18 16:30 46.798513 -122.309620 180 21998ft 406kts
11-Oct-18 16:31 46.664320 -122.309568 180 24410ft 424kts
11-Oct-18 16:32 46.564637 -122.309532 180 25178ft 444kts
11-Oct-18 16:33 46.437110 -122.309496 180 24744ft 472kts
11-Oct-18 16:34 46.309692 -122.309489 180 22736ft 451kts
11-Oct-18 16:35 46.191037 -122.346232 202 20417ft 431kts
11-Oct-18 16:36 46.083956 -122.405808 202 16803ft 404kts
11-Oct-18 16:37 45.981918 -122.460892 201 13080ft 377kts
11-Oct-18 16:38 45.887146 -122.496823 176 10115ft 349kts
11-Oct-18 16:39 45.805753 -122.448292 161 8644ft 294kts
11-Oct-18 16:40 45.730415 -122.423514 167 7286ft 274kts
11-Oct-18 16:41 45.655106 -122.399039 165 5195ft 279kts
11-Oct-18 16:42 45.580924 -122.371297 165 3256ft 272kts
11-Oct-18 16:43 45.534734 -122.417701 264 2668ft 221kts
11-Oct-18 16:44 45.553493 -122.489919 301 1199ft 191kts
11-Oct-18 16:45 45.575659 -122.546028 299 323ft 136kts
11-Oct-18 16:46 45.591375 -122.586898 297 24ft 44kts
11-Oct-18 16:47 45.592107 -122.592749 269 23ft 8kts
11-Oct-18 16:48 45.593011 -122.596473 291 23ft 11kts
11-Oct-18 16:49 45.590920 -122.600169 236 23ft 15kts
11-Oct-18 16:50 45.588931 -122.599094 95 23ft 0kts
11-Oct-18 16:51 45.588773 -122.598812 131 23ft 6kts
11-Oct-18 16:52 45.588611 -122.596935 5 23ft 0kts
11-Oct-18 16:53 45.588611 -122.596935 5 23ft 0kts
11-Oct-18 16:54 45.588611 -122.596935 5 23ft 0kts
11-Oct-18 16:55 45.588611 -122.596935 5 23ft 0kts
11-Oct-18 16:56 45.588611 -122.596935 5 23ft 0kts
11-Oct-18 16:57 45.588611 -122.596935 5 23ft 0kts
11-Oct-18 16:58 45.588611 -122.596935 5 23ft 0kts
11-Oct-18 16:59 45.588611 -122.596935 5 23ft 0kts
11-Oct-18 17:00 45.588611 -122.596935 5 23ft 0kts
11-Oct-18 17:01 45.588611 -122.596935 5 23ft 0kts

Navigation Log

Ident Type
Flight plan parsing failed, navigation log unavailable